Time;durP1;ratioP1;P1;durP2;ratioP2;P2;SDS_P1;SDS_P2;PMS_P1;PMS_P2;Temp;Humidity;BMP_temperature;BMP_pressure;BME280_temperature;BME280_humidity;BME280_pressure;Samples;Min_cycle;Max_cycle;Signal;HPM_P1;HPM_P2
2021/12/29 00:00:19;;;;;;;3.97;3.27;;;3.90;99.90;;;;;;5089443;28;20521;-56
2021/12/29 00:02:46;;;;;;;4.07;3.37;;;4.10;99.90;;;;;;5092170;28;20548;-56
2021/12/29 00:05:13;;;;;;;3.90;2.77;;;4.20;99.90;;;;;;5088748;28;20483;-58
2021/12/29 00:07:40;;;;;;;4.23;3.60;;;4.20;99.90;;;;;;5143135;22;20916;-51
2021/12/29 00:10:08;;;;;;;5.83;4.60;;;4.30;99.90;;;;;;5101843;28;20492;-51
2021/12/29 00:12:41;;;;;;;5.90;4.90;;;4.50;99.90;;;;;;5094777;28;20453;-52
2021/12/29 00:15:10;;;;;;;4.80;3.70;;;4.40;99.90;;;;;;5102548;28;20449;-54
2021/12/29 00:17:39;;;;;;;4.90;2.43;;;4.50;99.90;;;;;;5076962;28;21061;-51
2021/12/29 00:20:07;;;;;;;3.87;2.27;;;4.40;99.90;;;;;;5076486;28;20493;-51
2021/12/29 00:22:34;;;;;;;3.30;3.00;;;4.50;99.90;;;;;;5081420;28;20502;-52
2021/12/29 00:25:01;;;;;;;5.77;5.03;;;4.50;99.90;;;;;;5071445;28;20478;-52
2021/12/29 00:27:28;;;;;;;5.33;4.83;;;4.30;99.90;;;;;;5077492;28;20543;-52
2021/12/29 00:29:55;;;;;;;5.50;4.57;;;4.00;99.90;;;;;;5080693;28;20541;-50
2021/12/29 00:32:24;;;;;;;5.40;4.90;;;3.80;99.90;;;;;;5082389;28;20468;-51
2021/12/29 00:34:51;;;;;;;5.50;4.37;;;3.80;99.90;;;;;;5072465;28;20476;-53
2021/12/29 00:37:18;;;;;;;6.13;4.67;;;3.90;99.90;;;;;;5075472;28;20888;-52
2021/12/29 00:39:44;;;;;;;5.30;4.80;;;3.90;99.90;;;;;;5078572;28;20564;-51
2021/12/29 00:42:11;;;;;;;6.03;4.97;;;3.80;99.90;;;;;;5078243;28;20606;-50
2021/12/29 00:44:38;;;;;;;6.03;4.30;;;3.60;99.90;;;;;;5084187;28;20486;-51
2021/12/29 00:47:05;;;;;;;10.60;4.83;;;3.60;99.90;;;;;;5076351;28;20512;-54
2021/12/29 00:49:35;;;;;;;5.67;5.13;;;3.30;99.90;;;;;;5081228;28;20485;-51
2021/12/29 00:52:06;;;;;;;5.10;4.00;;;3.20;99.90;;;;;;5081863;28;20864;-51
2021/12/29 00:54:33;;;;;;;4.33;3.97;;;3.30;99.90;;;;;;5078768;28;20458;-50
2021/12/29 00:57:00;;;;;;;4.53;3.90;;;3.50;99.90;;;;;;5081681;28;20533;-51
2021/12/29 00:59:27;;;;;;;5.37;3.10;;;3.40;99.90;;;;;;5079451;28;20522;-51
2021/12/29 01:01:54;;;;;;;4.20;3.80;;;3.40;99.90;;;;;;5076082;28;20973;-51
2021/12/29 01:04:22;;;;;;;5.27;3.50;;;3.40;99.90;;;;;;5075758;28;20541;-51
2021/12/29 01:06:50;;;;;;;4.13;3.83;;;3.40;99.90;;;;;;5077100;28;20554;-53
2021/12/29 01:09:17;;;;;;;3.50;3.20;;;3.60;99.90;;;;;;5077156;28;20523;-52
2021/12/29 01:11:44;;;;;;;3.83;3.53;;;3.80;99.90;;;;;;5082595;28;20542;-51
2021/12/29 01:14:11;;;;;;;3.80;3.50;;;3.60;99.90;;;;;;5080954;28;20475;-53
2021/12/29 01:16:39;;;;;;;4.27;3.87;;;3.80;99.90;;;;;;5071303;28;20555;-51
2021/12/29 01:19:09;;;;;;;5.57;3.83;;;3.90;99.90;;;;;;5080553;28;20555;-52
2021/12/29 01:21:38;;;;;;;5.20;4.00;;;3.90;99.90;;;;;;5077382;28;20560;-53
2021/12/29 01:24:08;;;;;;;4.67;3.80;;;4.00;99.90;;;;;;5067521;28;20545;-51
2021/12/29 01:26:35;;;;;;;3.87;3.57;;;4.10;99.90;;;;;;5083905;28;20901;-50
2021/12/29 01:29:03;;;;;;;4.60;4.00;;;4.20;99.90;;;;;;5080694;28;20481;-51
2021/12/29 01:31:30;;;;;;;3.77;3.47;;;4.30;99.90;;;;;;5074057;28;20505;-51
2021/12/29 01:33:59;;;;;;;6.20;4.20;;;4.20;99.90;;;;;;5078426;28;20530;-51
2021/12/29 01:36:26;;;;;;;4.30;3.90;;;3.80;99.90;;;;;;5074687;28;20548;-51
2021/12/29 01:38:54;;;;;;;3.40;3.10;;;3.90;99.90;;;;;;5076263;28;20456;-53
2021/12/29 01:41:23;;;;;;;4.43;4.13;;;4.00;99.90;;;;;;5074676;28;20551;-54
2021/12/29 01:43:50;;;;;;;4.37;3.97;;;4.10;99.90;;;;;;5079419;28;20447;-51
2021/12/29 01:46:17;;;;;;;5.87;3.93;;;4.00;99.90;;;;;;5072429;28;20562;-51
2021/12/29 01:48:44;;;;;;;5.53;4.97;;;3.90;99.90;;;;;;5080858;28;20527;-55
2021/12/29 01:51:11;;;;;;;7.53;5.30;;;4.00;99.90;;;;;;5076265;28;20916;-51
2021/12/29 01:53:46;;;;;;;4.63;3.90;;;4.10;99.90;;;;;;5079830;28;20445;-52
2021/12/29 01:56:14;;;;;;;5.57;3.83;;;4.00;99.90;;;;;;5087115;28;20453;-54
2021/12/29 01:58:43;;;;;;;5.50;4.60;;;4.10;99.90;;;;;;5071574;28;20509;-51
2021/12/29 02:01:10;;;;;;;4.50;4.10;;;3.90;99.90;;;;;;5073654;28;20567;-50
2021/12/29 02:03:36;;;;;;;5.03;4.50;;;3.60;99.90;;;;;;5082436;28;20539;-52
2021/12/29 02:06:03;;;;;;;4.10;3.70;;;3.60;99.90;;;;;;5070794;28;20908;-51
2021/12/29 02:08:32;;;;;;;4.60;3.77;;;3.50;99.90;;;;;;5078733;28;20484;-51
2021/12/29 02:11:00;;;;;;;4.50;3.83;;;3.50;99.90;;;;;;5081997;28;20846;-51
2021/12/29 02:13:28;;;;;;;4.77;4.30;;;3.70;99.90;;;;;;5072634;28;20503;-53
2021/12/29 02:15:57;;;;;;;4.10;3.50;;;3.90;99.90;;;;;;5081323;28;20449;-55
2021/12/29 02:18:25;;;;;;;4.40;3.80;;;4.00;99.90;;;;;;5070130;28;20966;-52
2021/12/29 02:20:55;;;;;;;4.10;3.73;;;4.10;99.90;;;;;;5073167;28;20481;-51
2021/12/29 02:23:29;;;;;;;5.57;4.30;;;4.20;99.90;;;;;;5081660;28;20473;-51
2021/12/29 02:25:58;;;;;;;5.57;4.80;;;4.20;99.90;;;;;;5074450;28;20454;-51
2021/12/29 02:28:27;;;;;;;3.97;3.60;;;4.30;99.90;;;;;;5068819;28;20450;-51
2021/12/29 02:30:58;;;;;;;3.77;3.37;;;3.70;99.90;;;;;;5073100;28;20532;-52
2021/12/29 02:33:25;;;;;;;3.30;3.00;;;3.20;99.90;;;;;;5079354;28;20818;-49
2021/12/29 02:35:54;;;;;;;4.70;3.17;;;3.20;99.90;;;;;;5076366;28;20449;-54
2021/12/29 02:38:25;;;;;;;5.20;4.10;;;3.40;99.90;;;;;;5077939;28;20448;-51
2021/12/29 02:40:54;;;;;;;3.77;3.47;;;3.60;99.90;;;;;;5083107;28;20515;-52
2021/12/29 02:43:22;;;;;;;4.30;3.90;;;3.70;99.90;;;;;;5071632;28;20945;-51
2021/12/29 02:45:58;;;;;;;5.20;3.73;;;3.80;99.90;;;;;;5082938;28;20443;-51
2021/12/29 02:48:26;;;;;;;3.70;3.40;;;3.90;99.90;;;;;;5077476;28;20448;-53
2021/12/29 02:50:56;;;;;;;3.67;2.80;;;3.70;99.90;;;;;;5070178;28;20442;-53
2021/12/29 02:53:25;;;;;;;4.80;3.63;;;3.60;99.90;;;;;;5075869;28;20443;-52
2021/12/29 02:55:52;;;;;;;4.30;3.90;;;3.80;99.90;;;;;;5081794;28;20447;-51
2021/12/29 02:58:20;;;;;;;4.93;4.53;;;3.80;99.90;;;;;;5075506;28;20477;-52
2021/12/29 03:00:47;;;;;;;5.33;4.33;;;3.80;99.90;;;;;;5070380;28;20566;-49
2021/12/29 03:03:17;;;;;;;4.77;3.93;;;3.30;99.90;;;;;;5078036;28;20536;-51
2021/12/29 03:05:44;;;;;;;5.33;4.37;;;3.40;99.90;;;;;;5074378;28;20537;-53
2021/12/29 03:08:13;;;;;;;3.80;3.40;;;3.70;99.90;;;;;;5076272;28;20520;-51
2021/12/29 03:10:41;;;;;;;6.17;3.67;;;3.80;99.90;;;;;;5080086;28;20854;-52
2021/12/29 03:13:08;;;;;;;3.90;3.50;;;4.00;99.90;;;;;;5075727;28;20526;-51
2021/12/29 03:15:36;;;;;;;3.53;3.23;;;4.10;99.90;;;;;;5083073;28;20446;-53
2021/12/29 03:18:03;;;;;;;3.67;3.37;;;4.20;99.90;;;;;;5079460;28;20494;-51
2021/12/29 03:20:31;;;;;;;4.47;4.07;;;4.30;99.90;;;;;;5080027;28;20562;-52
2021/12/29 03:22:58;;;;;;;5.13;4.63;;;4.40;99.90;;;;;;5083086;28;20442;-50
2021/12/29 03:25:27;;;;;;;4.70;4.17;;;4.50;99.90;;;;;;5081160;28;21012;-52
2021/12/29 03:27:58;;;;;;;4.20;3.70;;;4.50;99.90;;;;;;5072139;28;20507;-53
2021/12/29 03:30:26;;;;;;;4.37;3.70;;;4.50;99.90;;;;;;5086005;28;20972;-52
2021/12/29 03:33:02;;;;;;;4.37;4.07;;;4.50;99.90;;;;;;5077571;28;20456;-51
2021/12/29 03:35:30;;;;;;;5.67;3.93;;;4.40;99.90;;;;;;5079222;28;20513;-54
2021/12/29 03:37:58;;;;;;;4.20;3.40;;;4.50;99.90;;;;;;5088033;28;20994;-50
2021/12/29 03:40:26;;;;;;;3.07;2.87;;;4.30;99.90;;;;;;5079375;28;20470;-52
2021/12/29 03:42:54;;;;;;;3.40;3.00;;;4.00;99.90;;;;;;5073486;28;20484;-51
2021/12/29 03:45:21;;;;;;;4.43;3.30;;;4.20;99.90;;;;;;5087848;28;20479;-51
2021/12/29 03:47:49;;;;;;;2.80;2.57;;;4.30;99.90;;;;;;5076211;28;20502;-52
2021/12/29 03:50:16;;;;;;;3.03;2.73;;;4.40;99.90;;;;;;5081090;28;20905;-51
2021/12/29 03:52:43;;;;;;;2.70;2.50;;;4.40;99.90;;;;;;5087197;28;20474;-52
2021/12/29 03:55:11;;;;;;;2.90;2.70;;;4.50;99.90;;;;;;5072886;28;20512;-51
2021/12/29 03:57:40;;;;;;;4.40;3.13;;;4.40;99.90;;;;;;5081522;28;20535;-54
2021/12/29 04:00:10;;;;;;;3.50;3.00;;;4.40;99.90;;;;;;5084444;28;20549;-53
2021/12/29 04:02:37;;;;;;;4.30;3.00;;;4.40;99.90;;;;;;5074403;28;20522;-54
2021/12/29 04:05:06;;;;;;;3.13;2.73;;;4.50;99.90;;;;;;5083844;28;20482;-51
2021/12/29 04:07:33;;;;;;;3.27;2.50;;;4.50;99.90;;;;;;5079999;28;20572;-52
2021/12/29 04:10:00;;;;;;;2.40;2.20;;;4.60;99.90;;;;;;5074514;28;20496;-52
2021/12/29 04:12:27;;;;;;;2.43;1.97;;;4.60;99.90;;;;;;5071188;28;20486;-51
2021/12/29 04:14:55;;;;;;;3.30;2.20;;;4.60;99.90;;;;;;5085507;28;20469;-52
2021/12/29 04:17:26;;;;;;;3.57;3.10;;;4.60;99.90;;;;;;5071619;28;20472;-52
2021/12/29 04:22:38;;;;;;;3.13;2.83;;;4.70;99.90;;;;;;5072343;28;20517;-52
2021/12/29 04:25:05;;;;;;;4.27;3.20;;;4.40;99.90;;;;;;5071952;28;20533;-53
2021/12/29 04:27:32;;;;;;;3.00;2.80;;;4.20;99.90;;;;;;5082420;28;20475;-51
2021/12/29 04:30:01;;;;;;;3.20;2.90;;;4.30;99.90;;;;;;5077299;28;20949;-51
2021/12/29 04:32:28;;;;;;;4.00;2.60;;;4.30;99.90;;;;;;5078489;28;20986;-50
2021/12/29 04:34:55;;;;;;;8.80;5.20;;;4.40;99.90;;;;;;5083324;28;20482;-53
2021/12/29 04:37:21;;;;;;;3.17;2.63;;;4.50;99.90;;;;;;5076933;28;20485;-51
2021/12/29 04:39:48;;;;;;;5.03;4.10;;;4.30;99.90;;;;;;5079055;28;21036;-52
2021/12/29 04:42:15;;;;;;;4.60;3.10;;;4.40;99.90;;;;;;5078452;28;20507;-54
2021/12/29 04:44:42;;;;;;;2.43;2.00;;;4.50;99.90;;;;;;5078501;28;20881;-52
2021/12/29 04:47:12;;;;;;;2.27;2.07;;;4.60;99.90;;;;;;5069461;28;20600;-51
2021/12/29 04:49:41;;;;;;;2.77;2.03;;;4.60;99.90;;;;;;5081766;28;20442;-54
2021/12/29 04:52:11;;;;;;;3.20;2.70;;;4.60;99.90;;;;;;5078524;28;20448;-53
2021/12/29 04:54:39;;;;;;;4.37;3.97;;;4.60;99.90;;;;;;5078043;28;20943;-51
2021/12/29 04:57:06;;;;;;;3.60;2.83;;;4.70;99.90;;;;;;5083293;28;20549;-51
2021/12/29 04:59:33;;;;;;;3.23;2.83;;;4.70;99.90;;;;;;5075078;28;20537;-52
2021/12/29 05:02:00;;;;;;;2.17;1.97;;;4.80;99.90;;;;;;5073602;28;20523;-51
2021/12/29 05:04:33;;;;;;;3.33;2.83;;;4.70;99.90;;;;;;5086755;28;20445;-52
2021/12/29 05:09:44;;;;;;;7.03;2.67;;;4.80;99.90;;;;;;5073749;28;20484;-52
2021/12/29 05:12:12;;;;;;;2.00;1.80;;;4.80;99.90;;;;;;5085108;28;20530;-52
2021/12/29 05:14:38;;;;;;;2.50;2.30;;;4.80;99.90;;;;;;5071738;28;20471;-51
2021/12/29 05:17:06;;;;;;;2.87;2.40;;;4.80;99.90;;;;;;5069369;28;20550;-52
2021/12/29 05:19:35;;;;;;;2.77;2.53;;;4.80;99.90;;;;;;5086681;28;20470;-49
2021/12/29 05:22:02;;;;;;;2.87;2.67;;;4.70;99.90;;;;;;5075778;28;20562;-52
2021/12/29 05:24:29;;;;;;;4.20;2.87;;;4.40;99.90;;;;;;5076560;28;20475;-51
2021/12/29 05:26:57;;;;;;;3.33;2.27;;;4.00;99.90;;;;;;5079988;28;20547;-51
2021/12/29 05:29:23;;;;;;;2.50;2.30;;;4.00;99.90;;;;;;5075385;28;20502;-52
2021/12/29 05:31:50;;;;;;;2.20;2.00;;;4.10;99.90;;;;;;5073832;28;20881;-54
2021/12/29 05:34:17;;;;;;;2.53;2.33;;;4.30;99.90;;;;;;5077418;28;20947;-51
2021/12/29 05:36:46;;;;;;;3.77;2.40;;;4.40;99.90;;;;;;5071375;28;20503;-52
2021/12/29 05:39:13;;;;;;;4.73;4.00;;;4.50;99.90;;;;;;5066493;28;20537;-51
2021/12/29 05:41:40;;;;;;;5.47;3.80;;;4.50;99.90;;;;;;5070745;28;20520;-51
2021/12/29 05:44:07;;;;;;;4.80;3.10;;;4.40;99.90;;;;;;5069421;28;20554;-51
2021/12/29 05:46:34;;;;;;;2.53;2.33;;;4.40;99.90;;;;;;5081939;28;20554;-52
2021/12/29 05:49:01;;;;;;;2.80;2.13;;;4.40;99.90;;;;;;5073550;28;20537;-50
2021/12/29 05:51:28;;;;;;;3.37;3.07;;;4.30;99.90;;;;;;5068077;28;20544;-53
2021/12/29 05:53:56;;;;;;;6.23;4.00;;;4.40;99.90;;;;;;5069891;28;20552;-52
2021/12/29 05:56:23;;;;;;;3.70;3.40;;;4.50;99.90;;;;;;5074848;28;21020;-52
2021/12/29 05:58:50;;;;;;;3.13;2.30;;;4.50;99.90;;;;;;5071147;28;20482;-52
2021/12/29 06:01:17;;;;;;;3.53;3.20;;;4.60;99.90;;;;;;5086640;28;20964;-48
2021/12/29 06:03:44;;;;;;;2.70;2.50;;;4.60;99.90;;;;;;5075191;28;20538;-50
2021/12/29 06:06:11;;;;;;;2.50;1.93;;;4.00;99.90;;;;;;5086720;22;20465;-79
2021/12/29 06:08:38;;;;;;;2.00;1.70;;;3.70;99.90;;;;;;5091153;28;20445;-79
2021/12/29 06:11:06;;;;;;;2.70;1.40;;;3.80;99.90;;;;;;5090918;28;20537;-79
2021/12/29 06:13:33;;;;;;;1.73;1.63;;;3.90;99.90;;;;;;5092063;28;20484;-79
2021/12/29 06:16:00;;;;;;;1.80;1.57;;;4.10;99.90;;;;;;5090713;28;20492;-79
2021/12/29 06:18:27;;;;;;;1.67;1.57;;;4.20;99.90;;;;;;5063690;28;20493;-78
2021/12/29 06:20:54;;;;;;;4.67;2.97;;;4.30;99.90;;;;;;5071797;28;20984;-78
2021/12/29 06:23:22;;;;;;;7.10;4.50;;;4.40;99.90;;;;;;5073031;28;20587;-79
2021/12/29 06:25:49;;;;;;;5.70;5.03;;;4.50;99.90;;;;;;5074593;28;20469;-79
2021/12/29 06:28:17;;;;;;;4.33;3.80;;;4.40;99.90;;;;;;5083093;28;20486;-79
2021/12/29 06:30:44;;;;;;;4.47;3.73;;;4.40;99.90;;;;;;5080158;28;20551;-79
2021/12/29 06:33:11;;;;;;;4.70;3.93;;;4.30;99.90;;;;;;5069129;28;20487;-80
2021/12/29 06:35:39;;;;;;;2.07;1.93;;;4.40;99.90;;;;;;5073045;28;20471;-78
2021/12/29 06:38:06;;;;;;;2.63;2.43;;;3.90;99.90;;;;;;5076390;28;20494;-79
2021/12/29 06:40:33;;;;;;;3.10;2.63;;;3.90;99.90;;;;;;5075908;28;20463;-78
2021/12/29 06:43:00;;;;;;;2.47;2.27;;;3.90;99.90;;;;;;5087956;28;20557;-79
2021/12/29 06:45:29;;;;;;;2.77;2.57;;;4.10;99.90;;;;;;5080766;28;20669;-79
2021/12/29 06:47:56;;;;;;;4.53;3.73;;;4.10;99.90;;;;;;5074033;28;20883;-79
2021/12/29 06:50:23;;;;;;;3.70;3.40;;;4.20;99.90;;;;;;5079992;28;20485;-78
2021/12/29 06:52:50;;;;;;;2.87;2.63;;;4.20;99.90;;;;;;5080836;28;20462;-79
2021/12/29 06:55:17;;;;;;;3.57;3.27;;;4.20;99.90;;;;;;5078661;28;20487;-80
2021/12/29 06:57:44;;;;;;;2.60;2.30;;;4.00;99.90;;;;;;5091570;28;20512;-80
2021/12/29 07:00:12;;;;;;;5.60;4.10;;;4.10;99.90;;;;;;5079550;28;20481;-80
2021/12/29 07:02:41;;;;;;;5.83;5.00;;;4.00;99.90;;;;;;5080450;28;20517;-80
2021/12/29 07:05:08;;;;;;;5.13;4.63;;;4.00;99.90;;;;;;5080076;28;20704;-80
2021/12/29 07:07:36;;;;;;;13.70;8.47;;;4.00;99.90;;;;;;5067019;28;20553;-80
2021/12/29 07:10:04;;;;;;;7.33;5.40;;;4.10;99.90;;;;;;5082092;28;20441;-79
2021/12/29 07:12:31;;;;;;;3.17;2.83;;;4.20;99.90;;;;;;5080454;28;20472;-80
2021/12/29 07:14:58;;;;;;;1.60;1.50;;;4.30;99.90;;;;;;5077170;28;20531;-80
2021/12/29 07:17:25;;;;;;;1.33;1.20;;;4.30;99.90;;;;;;5083035;28;20543;-80
2021/12/29 07:19:54;;;;;;;2.60;1.67;;;4.40;99.90;;;;;;5088466;28;20464;-80
2021/12/29 07:22:21;;;;;;;6.80;6.00;;;4.40;99.90;;;;;;5074571;28;20478;-80
2021/12/29 07:24:47;;;;;;;10.90;7.57;;;4.40;99.90;;;;;;5086044;28;20534;-80
2021/12/29 07:27:14;;;;;;;9.37;6.70;;;4.30;99.90;;;;;;5079549;28;20480;-80
2021/12/29 07:29:42;;;;;;;8.07;5.80;;;4.30;99.90;;;;;;5075895;28;20491;-79
2021/12/29 07:32:09;;;;;;;5.03;4.43;;;4.30;99.90;;;;;;5087770;28;21075;-80
2021/12/29 07:34:36;;;;;;;7.03;3.67;;;4.20;99.90;;;;;;5083068;28;20459;-80
2021/12/29 07:37:05;;;;;;;5.50;3.50;;;4.10;99.90;;;;;;5075577;28;20516;-80
2021/12/29 07:39:32;;;;;;;5.80;2.90;;;4.10;99.90;;;;;;5085569;28;20487;-80
2021/12/29 07:41:59;;;;;;;3.50;3.20;;;4.20;99.90;;;;;;5078704;28;20555;-80
2021/12/29 07:44:27;;;;;;;7.60;6.90;;;4.30;99.90;;;;;;5077136;28;20493;-78
2021/12/29 07:46:57;;;;;;;6.87;6.10;;;4.30;99.90;;;;;;5090113;28;20554;-80
2021/12/29 07:49:24;;;;;;;5.83;4.87;;;4.40;99.90;;;;;;5080359;28;20859;-80
2021/12/29 07:51:52;;;;;;;6.27;5.37;;;4.50;99.90;;;;;;5078143;28;20605;-80
2021/12/29 07:54:21;;;;;;;4.40;3.97;;;4.50;99.90;;;;;;5084855;28;20463;-80
2021/12/29 07:56:48;;;;;;;4.50;4.10;;;4.50;99.90;;;;;;5076634;28;20456;-80
2021/12/29 07:59:15;;;;;;;2.00;1.80;;;4.50;99.90;;;;;;5078805;28;20474;-79
2021/12/29 08:01:43;;;;;;;2.17;1.50;;;4.30;99.90;;;;;;5090601;28;20464;-80
2021/12/29 08:04:11;;;;;;;3.27;2.17;;;4.20;99.90;;;;;;5077269;28;20440;-80
2021/12/29 08:06:38;;;;;;;5.20;4.80;;;4.40;99.90;;;;;;5080078;28;20511;-79
2021/12/29 08:09:06;;;;;;;6.10;4.40;;;4.50;99.90;;;;;;5089579;28;20477;-78
2021/12/29 08:11:35;;;;;;;5.97;4.63;;;4.50;99.90;;;;;;5094484;28;20485;-80
2021/12/29 08:14:02;;;;;;;8.30;5.43;;;4.70;99.90;;;;;;5083705;28;20732;-80
2021/12/29 08:16:29;;;;;;;7.73;6.73;;;4.60;99.90;;;;;;5074091;28;20499;-80
2021/12/29 08:18:56;;;;;;;13.63;10.67;;;4.70;99.90;;;;;;5076054;28;20492;-80
2021/12/29 08:21:23;;;;;;;9.90;8.13;;;4.70;99.90;;;;;;5083308;28;20486;-80
2021/12/29 08:23:50;;;;;;;6.83;6.13;;;4.70;99.90;;;;;;5075177;28;20510;-80
2021/12/29 08:26:17;;;;;;;10.83;7.97;;;4.80;99.90;;;;;;5070686;28;20546;-79
2021/12/29 08:28:45;;;;;;;10.20;9.10;;;4.70;99.90;;;;;;5082763;28;20489;-79
2021/12/29 08:31:13;;;;;;;10.03;8.87;;;4.70;99.90;;;;;;5079396;28;20492;-80
2021/12/29 08:33:40;;;;;;;11.00;7.60;;;4.60;99.90;;;;;;5075750;28;20475;-79
2021/12/29 08:36:07;;;;;;;6.83;4.77;;;4.60;99.90;;;;;;5084038;28;20493;-80
2021/12/29 08:38:36;;;;;;;20.53;12.00;;;4.30;99.90;;;;;;5080620;28;20478;-80
2021/12/29 08:41:03;;;;;;;20.53;12.70;;;4.10;99.90;;;;;;5074166;28;20532;-80
2021/12/29 08:43:31;;;;;;;11.67;10.10;;;4.30;99.90;;;;;;5083589;28;20515;-80
2021/12/29 08:46:00;;;;;;;11.00;10.00;;;4.40;99.90;;;;;;5074392;28;20460;-80
2021/12/29 08:48:27;;;;;;;9.27;7.10;;;4.50;99.90;;;;;;5077149;28;20959;-80
2021/12/29 08:50:57;;;;;;;26.50;12.10;;;4.20;99.90;;;;;;5087666;28;20482;-80
2021/12/29 08:53:24;;;;;;;7.60;4.93;;;3.90;99.90;;;;;;5080838;28;20432;-80
2021/12/29 08:55:51;;;;;;;22.17;14.30;;;4.00;99.90;;;;;;5078971;28;20441;-79
2021/12/29 08:58:19;;;;;;;21.93;13.57;;;4.20;99.90;;;;;;5083425;28;20445;-79
2021/12/29 09:00:46;;;;;;;17.03;8.20;;;4.30;99.90;;;;;;5067241;28;20531;-80
2021/12/29 09:03:14;;;;;;;21.47;11.90;;;4.10;99.90;;;;;;5077996;28;20513;-79
2021/12/29 09:05:41;;;;;;;13.30;9.80;;;4.20;99.90;;;;;;5087785;28;20476;-79
2021/12/29 09:08:08;;;;;;;14.30;8.70;;;4.30;99.90;;;;;;5076732;28;20477;-79
2021/12/29 09:10:36;;;;;;;6.90;5.33;;;4.40;99.90;;;;;;5080973;28;20465;-80
2021/12/29 09:13:03;;;;;;;13.93;10.53;;;4.30;99.90;;;;;;5081103;28;20434;-79
2021/12/29 09:15:31;;;;;;;10.27;8.20;;;4.40;99.90;;;;;;5075883;28;20483;-79
2021/12/29 09:17:59;;;;;;;6.27;5.57;;;4.50;99.90;;;;;;5077322;28;20500;-79
2021/12/29 09:20:30;;;;;;;3.93;3.30;;;4.60;99.90;;;;;;5072088;28;20934;-78
2021/12/29 09:23:01;;;;;;;6.43;4.30;;;4.80;99.90;;;;;;5074081;28;20476;-79
2021/12/29 09:25:28;;;;;;;11.67;10.43;;;4.80;99.90;;;;;;5083176;28;20498;-79
2021/12/29 09:27:55;;;;;;;12.17;10.90;;;4.90;99.90;;;;;;5081983;28;20458;-78
2021/12/29 09:30:26;;;;;;;13.10;10.57;;;4.60;99.90;;;;;;5067787;28;20484;-79
2021/12/29 09:32:54;;;;;;;11.87;10.77;;;4.60;99.90;;;;;;5067860;28;20541;-79
2021/12/29 09:35:22;;;;;;;13.30;9.10;;;4.40;99.90;;;;;;5082291;28;20723;-79
2021/12/29 09:37:52;;;;;;;18.47;15.43;;;3.90;99.90;;;;;;5074117;28;20875;-80
2021/12/29 09:40:21;;;;;;;16.00;11.50;;;4.10;99.90;;;;;;5084505;28;20473;-80
2021/12/29 09:42:48;;;;;;;9.00;7.20;;;4.30;99.90;;;;;;5080322;28;21055;-79
2021/12/29 09:45:15;;;;;;;4.87;3.47;;;3.90;99.90;;;;;;5073368;28;20497;-79
2021/12/29 09:47:42;;;;;;;5.23;3.67;;;3.70;99.90;;;;;;5084068;28;21017;-78
2021/12/29 09:50:12;;;;;;;3.40;3.10;;;4.00;99.90;;;;;;5074506;28;20494;-80
2021/12/29 09:52:40;;;;;;;5.30;4.90;;;4.10;99.90;;;;;;5078679;28;20877;-80
2021/12/29 09:55:11;;;;;;;9.53;8.53;;;4.30;99.90;;;;;;5083816;28;20832;-80
2021/12/29 09:57:44;;;;;;;16.07;11.00;;;4.40;99.90;;;;;;5077957;28;20494;-80
2021/12/29 10:00:20;;;;;;;13.17;11.77;;;4.50;99.90;;;;;;5078151;28;20515;-79
2021/12/29 10:02:47;;;;;;;12.43;11.33;;;4.60;99.90;;;;;;5086815;28;20829;-79
2021/12/29 10:05:14;;;;;;;10.83;8.43;;;4.50;99.90;;;;;;5076950;28;20474;-79
2021/12/29 10:07:41;;;;;;;10.80;8.70;;;4.20;99.90;;;;;;5076927;28;20500;-80
2021/12/29 10:10:19;;;;;;;11.77;8.60;;;4.00;99.90;;;;;;5085571;28;20483;-80
2021/12/29 10:12:47;;;;;;;13.83;9.73;;;4.10;99.90;;;;;;5086290;28;20865;-80
2021/12/29 10:15:14;;;;;;;15.37;11.60;;;4.30;99.90;;;;;;5078125;28;20487;-80
2021/12/29 10:17:41;;;;;;;37.00;32.47;;;4.20;99.90;;;;;;5082914;28;20520;-79
2021/12/29 10:20:10;;;;;;;96.57;76.43;;;4.30;99.90;;;;;;5080169;28;20944;-80
2021/12/29 10:22:38;;;;;;;52.83;43.30;;;4.40;99.90;;;;;;5080227;28;20513;-80
2021/12/29 10:25:08;;;;;;;12.40;10.63;;;4.60;99.90;;;;;;5078349;28;20486;-80
2021/12/29 10:27:38;;;;;;;11.20;10.10;;;4.70;99.90;;;;;;5084037;28;20548;-80
2021/12/29 10:30:17;;;;;;;10.53;9.63;;;4.80;99.90;;;;;;5082297;28;20664;-80
2021/12/29 10:32:44;;;;;;;21.97;15.03;;;4.50;99.90;;;;;;5091792;28;20437;-80
2021/12/29 10:35:21;;;;;;;24.83;16.63;;;4.30;99.90;;;;;;5084368;28;20474;-79
2021/12/29 10:37:48;;;;;;;21.60;17.37;;;4.40;99.90;;;;;;5081065;28;20544;-80
2021/12/29 10:40:26;;;;;;;11.37;10.20;;;4.60;99.90;;;;;;5084210;28;20487;-80
2021/12/29 10:42:59;;;;;;;8.83;7.37;;;4.80;99.90;;;;;;5081873;28;20517;-80
2021/12/29 10:45:32;;;;;;;8.60;7.80;;;5.00;99.90;;;;;;5083187;28;20482;-80
2021/12/29 10:47:59;;;;;;;9.33;7.70;;;5.00;99.90;;;;;;5090727;28;20832;-80
2021/12/29 10:50:27;;;;;;;6.30;5.70;;;5.10;99.90;;;;;;5089937;28;20485;-80
2021/12/29 10:52:56;;;;;;;7.40;5.87;;;5.20;99.90;;;;;;5080936;28;20446;-79
2021/12/29 10:55:31;;;;;;;7.17;6.57;;;5.20;99.90;;;;;;5081970;28;20549;-80
2021/12/29 10:58:06;;;;;;;8.30;7.60;;;5.30;99.90;;;;;;5081776;28;20511;-80
2021/12/29 11:00:34;;;;;;;6.80;6.10;;;5.40;99.90;;;;;;5081041;28;20453;-80
2021/12/29 11:03:09;;;;;;;85.43;40.80;;;5.00;99.90;;;;;;5091237;28;20998;-79
2021/12/29 11:05:38;;;;;;;19.43;11.90;;;4.80;99.90;;;;;;5087436;28;20493;-80
2021/12/29 11:08:10;;;;;;;19.50;9.93;;;4.90;99.90;;;;;;5080208;28;21023;-78
2021/12/29 11:10:37;;;;;;;12.67;8.87;;;5.00;99.90;;;;;;5087702;28;20487;-79
2021/12/29 11:13:07;;;;;;;14.03;12.53;;;5.10;99.90;;;;;;5082858;28;20474;-80
2021/12/29 11:15:41;;;;;;;10.30;9.20;;;5.10;99.90;;;;;;5076912;28;20505;-80
2021/12/29 11:18:09;;;;;;;9.50;8.70;;;5.20;99.90;;;;;;5078001;28;20827;-80
2021/12/29 11:20:38;;;;;;;17.33;12.90;;;5.20;99.90;;;;;;5074574;28;20479;-79
2021/12/29 11:23:09;;;;;;;13.40;11.23;;;4.90;99.90;;;;;;5071780;28;20481;-80
2021/12/29 11:25:37;;;;;;;14.70;11.30;;;5.00;99.90;;;;;;5074329;28;20989;-80
2021/12/29 11:28:06;;;;;;;15.47;9.60;;;5.10;99.90;;;;;;5072131;28;20522;-79
2021/12/29 11:30:34;;;;;;;10.57;9.70;;;5.30;99.90;;;;;;5073458;28;20478;-79
2021/12/29 11:33:07;;;;;;;10.23;9.23;;;5.30;99.90;;;;;;5071757;28;20494;-80
2021/12/29 11:35:39;;;;;;;10.07;9.00;;;4.90;99.90;;;;;;5076820;28;20455;-80
2021/12/29 11:38:07;;;;;;;15.63;12.10;;;4.80;99.90;;;;;;5070986;28;20459;-79
2021/12/29 11:40:37;;;;;;;19.77;13.77;;;4.80;99.90;;;;;;5075461;28;20444;-78
2021/12/29 11:43:07;;;;;;;32.40;19.30;;;5.00;99.90;;;;;;5073289;28;20867;-79
2021/12/29 11:45:35;;;;;;;13.43;10.70;;;5.10;99.90;;;;;;5074854;28;20450;-80
2021/12/29 11:48:02;;;;;;;12.17;10.80;;;5.10;99.90;;;;;;5083331;28;20932;-80
2021/12/29 11:50:32;;;;;;;25.57;23.07;;;5.20;99.90;;;;;;5084186;28;20861;-78
2021/12/29 11:53:32;;;;;;;15.93;14.37;;;5.30;99.90;;;;;;5080333;28;21020;-79
2021/12/29 11:58:49;;;;;;;12.23;11.03;;;5.30;99.90;;;;;;5053207;28;20475;-58
2021/12/29 12:01:18;;;;;;;10.67;9.57;;;5.10;99.90;;;;;;5046121;28;20537;-59
2021/12/29 12:03:50;;;;;;;10.30;9.40;;;5.00;99.90;;;;;;5050569;28;20477;-58
2021/12/29 12:06:28;;;;;;;7.80;7.13;;;5.00;99.90;;;;;;5054173;28;20551;-58
2021/12/29 12:09:06;;;;;;;8.43;7.60;;;5.20;99.90;;;;;;5031274;28;20438;-58
2021/12/29 12:14:16;;;;;;;6.33;4.93;;;5.20;99.90;;;;;;5033304;28;20468;-60
2021/12/29 12:16:49;;;;;;;10.57;8.27;;;5.20;99.90;;;;;;5033384;28;20537;-59
2021/12/29 12:19:19;;;;;;;11.30;9.63;;;5.30;99.90;;;;;;5030592;28;20792;-58
2021/12/29 12:21:46;;;;;;;10.30;9.30;;;5.40;99.90;;;;;;5029130;28;21352;-59
2021/12/29 12:24:17;;;;;;;9.93;8.93;;;5.50;99.90;;;;;;5021816;28;20481;-59
2021/12/29 12:26:55;;;;;;;11.30;9.77;;;5.60;99.90;;;;;;5020905;28;20901;-58
2021/12/29 12:29:24;;;;;;;9.00;8.20;;;5.60;99.90;;;;;;5022213;28;20519;-59
2021/12/29 12:32:04;;;;;;;9.83;9.03;;;5.70;99.90;;;;;;5022711;28;20493;-59
2021/12/29 12:34:32;;;;;;;13.00;10.00;;;5.80;99.90;;;;;;5019903;28;20851;-58
2021/12/29 12:37:00;;;;;;;9.93;8.83;;;5.80;99.90;;;;;;5025561;28;20442;-59
2021/12/29 12:39:28;;;;;;;9.13;8.23;;;5.90;99.90;;;;;;5024604;28;20869;-59
2021/12/29 12:41:56;;;;;;;9.60;8.60;;;6.00;99.90;;;;;;5020401;28;20457;-58
2021/12/29 12:44:34;;;;;;;8.80;7.73;;;5.90;99.90;;;;;;5026835;28;20510;-58
2021/12/29 12:47:11;;;;;;;14.33;8.30;;;5.60;99.90;;;;;;5018920;28;20449;-58
2021/12/29 12:49:50;;;;;;;10.03;7.67;;;5.50;99.90;;;;;;5019275;28;20446;-58
2021/12/29 12:52:18;;;;;;;9.37;8.40;;;5.50;99.90;;;;;;5026119;28;20524;-57
2021/12/29 12:54:47;;;;;;;7.97;7.17;;;5.70;99.90;;;;;;5026613;28;20560;-58
2021/12/29 12:57:25;;;;;;;11.67;8.83;;;5.70;99.90;;;;;;5018773;28;20493;-58
2021/12/29 13:00:04;;;;;;;12.93;10.60;;;5.70;99.90;;;;;;5011732;28;20501;-58
2021/12/29 13:02:38;;;;;;;9.83;8.43;;;5.60;99.90;;;;;;5028385;28;20546;-58
2021/12/29 13:05:08;;;;;;;8.80;7.90;;;5.40;99.90;;;;;;5015890;28;20520;-58
2021/12/29 13:07:36;;;;;;;8.40;7.50;;;5.50;99.90;;;;;;5022391;28;21076;-57
2021/12/29 13:10:05;;;;;;;7.20;6.40;;;5.40;99.90;;;;;;5027251;28;20466;-57